Bowlesville, Illinois
Current Conditions -  °F | °C
As of 8:35 PM on Sunday 23 Nov 2014 (Local Time) from KHSB Reporting Station
Overcast Overcast  
Wind Chill: 56°   Ceiling: 900
Heat Index: 56°   Visibility: 10mi
Dew Point: 56°   Wind: 16mph
Humidity: 100%   Direction: 220°SW
Pressure: 29.3"   Gusts: NA
Location:  37.7051°N, 88.1623°W
Report Text: KHSB 240235Z AUTO 22014KT 10SM OVC009 14/14 A2930 RMK AO2 T01350135
Loading
Personal Weather Stations






























Interactive Weather Map New forecast layout! Learn more

10-Day Weather Forecast

Advertisements
Track Severe Weather on mobile